Thurston, OH (43157)

8:43 AM EST on February 11, 2016 (GMT -0500)
Millersport | | Change Station
CLOSE
Current Station
Personal Weather Station
Location: Millersport, OH
Elevation: 896 ft
Nearby Weather Stations
Active Advisory: Special Statement

Elev 896 ft 39.90 °N, 82.53 °W | Updated 4 minutes ago

Partly Cloudy
Partly Cloudy
7.3 °F
Feels Like 7 °F
N
0.0
Wind Variable Wind from West

Today
High -- | Low -- °F
--% Chance of Precip.
Yesterday
High -- | Low -- °F
Precip. -- in
Pressure 30.26 in
Visibility 10.0 miles
Clouds Clear
Windchill 7 °F
Dew Point 4 °F
Humidity 85%
Rainfall 0.00 in
Snow Depth Not available.
7:28 AM 6:01 PM
Waxing Crescent, 12% visible
METAR KLHQ 111253Z AUTO 00000KT 10SM CLR M18/M21 A3020 RMK AO2 SLP246 I1000 T11831206
Pressure 30.26 in
Visibility 10.0 miles
Clouds Clear
Windchill 7 °F
Dew Point 4 °F
Humidity 85%
Rainfall 0.00 in
Snow Depth Not available.
7:28 AM 6:01 PM
Waxing Crescent, 12% visible
METAR KLHQ 111253Z AUTO 00000KT 10SM CLR M18/M21 A3020 RMK AO2 SLP246 I1000 T11831206

10-Day Weather Forecast

Almanac

Astronomy

Feb. 11, 2016 Rise Set
Actual Time
Civil Twilight
Nautical Twilight
Astronomical Twilight
Moon
Length of Visible Light
Length of Day
Tomorrow will be .
, % of the Moon is Illuminated

Today's Extremes

State Highs State Lows

Community

WunderPhotos

Upload Photos

1,892,046 photos uploaded!

WunderBlog® & News

Nearby

Air Quality

  Air Quality AQ Index Pollutant
Not available.

Snow Depth

Station Depth Elevation

Earthquake Activity

City Distance Mag. Time & Date
Minimum magnitude displayed is 2.5.

Coastal Water Temperatures

Place Temperature

Stations

Nearby Weather Stations

Station Location Temp. Windchill Dew Point Humidity Wind Precip. Elev Updated Type
                   

Watches & Warnings

Special Statement
Issued: 3:55 AM EST Feb. 11, 2016 – National Weather Service

... Cold wind chill readings this morning...

Temperatures this morning have dipped into the single digits at
many locations. This combined with west winds of 5 to 10 mph will
result in wind chill readings in the zero to 10 below range
through mid morning.

Be prepared for the cold temperatures this morning and bundle up
if headed outdoors.